createdAt,value
2018-07-06T00:01:39.559Z,6.58
2018-07-06T00:04:19.218Z,4.85
2018-07-06T00:06:58.890Z,4.22
2018-07-06T00:09:38.655Z,3.60
2018-07-06T00:12:18.529Z,3.25
2018-07-06T00:14:58.152Z,3.55
2018-07-06T00:17:37.765Z,3.37
2018-07-06T00:20:17.614Z,3.08
2018-07-06T00:22:57.321Z,3.25
2018-07-06T00:25:37.150Z,3.50
2018-07-06T00:28:16.958Z,3.17
2018-07-06T00:30:56.706Z,3.75
2018-07-06T00:33:36.412Z,3.17
2018-07-06T00:36:16.099Z,3.70
2018-07-06T00:38:56.007Z,3.35
2018-07-06T00:41:35.759Z,3.35
2018-07-06T00:44:15.474Z,3.58
2018-07-06T00:46:55.621Z,4.97
2018-07-06T00:49:35.320Z,9.23
2018-07-06T00:52:14.922Z,4.50
2018-07-06T00:54:54.988Z,3.80
2018-07-06T00:57:38.503Z,3.40
2018-07-06T01:00:18.264Z,3.30
2018-07-06T01:02:58.090Z,3.87
2018-07-06T01:05:37.734Z,3.85
2018-07-06T01:08:17.489Z,3.42
2018-07-06T01:10:57.603Z,3.65
2018-07-06T01:13:37.302Z,3.77
2018-07-06T01:16:17.077Z,3.75
2018-07-06T01:18:56.725Z,3.50
2018-07-06T01:21:36.374Z,3.60
2018-07-06T01:24:16.095Z,3.92
2018-07-06T01:26:55.654Z,4.20
2018-07-06T01:29:35.487Z,4.08
2018-07-06T01:32:15.276Z,3.85
2018-07-06T01:34:54.985Z,3.52
2018-07-06T01:37:34.662Z,3.72
2018-07-06T01:40:14.373Z,3.75
2018-07-06T01:42:54.178Z,3.77
2018-07-06T01:45:33.948Z,4.05
2018-07-06T01:48:13.753Z,4.15
2018-07-06T01:50:53.486Z,3.67
2018-07-06T01:53:33.198Z,5.30
2018-07-06T01:56:13.028Z,4.42
2018-07-06T01:58:52.746Z,4.80
2018-07-06T02:01:32.416Z,5.72
2018-07-06T02:04:12.238Z,5.87
2018-07-06T02:06:51.907Z,7.47
2018-07-06T02:09:31.603Z,5.47
2018-07-06T02:12:11.323Z,6.90
2018-07-06T02:14:50.882Z,6.62
2018-07-06T02:17:30.634Z,6.78
2018-07-06T02:20:10.268Z,6.87
2018-07-06T02:22:49.837Z,7.80
2018-07-06T02:25:29.539Z,6.12
2018-07-06T02:28:09.306Z,7.92
2018-07-06T02:30:49.261Z,7.00
2018-07-06T02:33:28.897Z,5.40
2018-07-06T02:36:08.738Z,6.45
2018-07-06T02:38:48.552Z,6.92
2018-07-06T02:41:28.243Z,5.62
2018-07-06T02:44:07.914Z,5.42
2018-07-06T02:46:47.522Z,5.00
2018-07-06T02:49:27.181Z,5.78
2018-07-06T02:52:06.838Z,6.42
2018-07-06T02:54:46.586Z,6.08
2018-07-06T02:57:26.205Z,5.87
2018-07-06T03:00:05.824Z,6.33
2018-07-06T03:02:45.483Z,5.87
2018-07-06T03:05:25.185Z,5.33
2018-07-06T03:08:04.817Z,6.78
2018-07-06T03:10:44.493Z,6.50
2018-07-06T03:13:24.221Z,5.92
2018-07-06T03:16:03.976Z,7.45
2018-07-06T03:18:43.560Z,9.08
2018-07-06T03:21:23.315Z,12.15
2018-07-06T03:24:03.101Z,10.90
2018-07-06T03:26:42.671Z,8.03
2018-07-06T03:29:22.576Z,7.78
2018-07-06T03:32:02.592Z,8.60
2018-07-06T03:34:42.471Z,9.00
2018-07-06T03:37:22.253Z,9.80
2018-07-06T03:40:02.089Z,9.48
2018-07-06T03:42:41.699Z,8.50
2018-07-06T03:45:21.521Z,11.08
2018-07-06T03:48:01.305Z,9.85
2018-07-06T03:50:40.906Z,9.63
2018-07-06T03:53:20.467Z,11.83
2018-07-06T03:56:00.037Z,10.85
2018-07-06T03:58:39.631Z,9.03
2018-07-06T04:01:19.583Z,12.55
2018-07-06T04:03:59.350Z,10.55
2018-07-06T04:06:39.015Z,9.13
2018-07-06T04:09:18.535Z,9.85
2018-07-06T04:11:58.158Z,10.18
2018-07-06T04:14:37.609Z,7.85
2018-07-06T04:17:17.442Z,7.05
2018-07-06T04:19:57.187Z,12.00
2018-07-06T04:22:37.162Z,9.18
2018-07-06T04:25:16.887Z,7.42
2018-07-06T04:27:56.703Z,7.15
2018-07-06T04:30:36.271Z,9.75
2018-07-06T04:33:16.029Z,11.80
2018-07-06T04:35:55.845Z,12.25
2018-07-06T04:38:35.564Z,10.05
2018-07-06T04:41:15.130Z,10.18
2018-07-06T04:43:54.707Z,12.33
2018-07-06T04:46:34.418Z,8.65
2018-07-06T04:49:14.257Z,9.23
2018-07-06T04:51:53.963Z,7.92
2018-07-06T04:54:33.657Z,12.50
2018-07-06T04:57:13.213Z,12.33
2018-07-06T04:59:52.901Z,12.68
2018-07-06T05:02:32.532Z,12.85
2018-07-06T05:05:12.245Z,9.15
2018-07-06T05:07:52.242Z,9.50
2018-07-06T05:10:31.886Z,7.92
2018-07-06T05:13:11.433Z,12.85
2018-07-06T05:15:51.170Z,9.15
2018-07-06T05:18:30.895Z,12.10
2018-07-06T05:21:10.649Z,8.25
2018-07-06T05:23:50.471Z,10.10
2018-07-06T05:26:30.239Z,11.45
2018-07-06T05:29:09.967Z,9.00
2018-07-06T05:31:49.696Z,11.93
2018-07-06T05:34:29.370Z,9.73
2018-07-06T05:37:08.996Z,7.78
2018-07-06T05:39:48.745Z,11.57
2018-07-06T05:42:28.362Z,9.50
2018-07-06T05:45:07.957Z,8.50
2018-07-06T05:47:47.718Z,9.95
2018-07-06T05:50:27.561Z,8.90
2018-07-06T05:53:07.246Z,8.48
2018-07-06T05:55:47.097Z,9.63
2018-07-06T05:58:26.773Z,11.40
2018-07-06T06:01:06.451Z,9.68
2018-07-06T06:03:46.313Z,9.55
2018-07-06T06:06:25.979Z,8.03
2018-07-06T06:08:53.301Z,12.43
2018-07-06T06:11:21.746Z,10.05
2018-07-06T06:13:50.405Z,9.88
2018-07-06T06:16:18.843Z,9.73
2018-07-06T06:18:47.306Z,8.45
2018-07-06T06:21:15.723Z,11.53
2018-07-06T06:23:44.062Z,7.87
2018-07-06T06:26:12.486Z,8.25
2018-07-06T06:28:40.884Z,7.60
2018-07-06T06:31:09.349Z,8.70
2018-07-06T06:33:37.991Z,10.90
2018-07-06T06:36:06.343Z,8.78
2018-07-06T06:38:37.661Z,8.25
2018-07-06T06:41:06.107Z,8.20
2018-07-06T06:43:34.501Z,9.00
2018-07-06T06:46:02.982Z,8.13
2018-07-06T06:48:31.399Z,11.55
2018-07-06T06:51:00.182Z,8.40
2018-07-06T06:53:28.724Z,9.70
2018-07-06T06:55:57.342Z,10.03
2018-07-06T06:58:25.818Z,8.15
2018-07-06T07:00:54.318Z,13.45
2018-07-06T07:03:23.056Z,11.63
2018-07-06T07:05:51.511Z,10.25
2018-07-06T07:08:19.928Z,13.08
2018-07-06T07:10:48.464Z,11.88
2018-07-06T07:13:17.010Z,12.85
2018-07-06T07:15:45.837Z,11.97
2018-07-06T07:18:14.322Z,10.08
2018-07-06T07:20:42.748Z,10.65
2018-07-06T07:23:11.206Z,10.45
2018-07-06T07:25:39.617Z,9.58
2018-07-06T07:28:08.003Z,11.48
2018-07-06T07:30:36.403Z,11.45
2018-07-06T07:33:04.888Z,9.03
2018-07-06T07:35:33.297Z,10.23
2018-07-06T07:38:01.757Z,9.18
2018-07-06T07:40:30.137Z,9.20
2018-07-06T07:42:59.107Z,9.13
2018-07-06T07:45:27.539Z,8.38
2018-07-06T07:47:56.046Z,9.08
2018-07-06T07:50:24.689Z,9.30
2018-07-06T07:53:04.331Z,7.97
2018-07-06T07:55:32.993Z,10.03
2018-07-06T07:58:01.864Z,9.10
2018-07-06T08:00:30.414Z,8.35
2018-07-06T08:02:58.797Z,9.13
2018-07-06T08:05:27.314Z,7.00
2018-07-06T08:07:55.850Z,8.35
2018-07-06T08:10:24.299Z,8.70
2018-07-06T08:12:52.780Z,8.78
2018-07-06T08:15:21.291Z,7.45
2018-07-06T08:17:49.674Z,6.65
2018-07-06T08:20:18.072Z,8.60
2018-07-06T08:22:46.700Z,6.95
2018-07-06T08:25:15.088Z,6.97
2018-07-06T08:27:43.504Z,7.10
2018-07-06T08:30:11.943Z,6.62
2018-07-06T08:32:40.413Z,8.00
2018-07-06T08:35:20.154Z,8.28
2018-07-06T08:37:58.774Z,7.30
2018-07-06T08:40:27.865Z,7.90
2018-07-06T08:42:57.446Z,8.05
2018-07-06T08:45:26.257Z,7.10
2018-07-06T08:47:54.687Z,7.20
2018-07-06T08:50:23.176Z,7.03
2018-07-06T08:52:52.326Z,6.62
2018-07-06T08:55:21.260Z,6.08
2018-07-06T08:57:50.888Z,6.50
2018-07-06T09:00:19.543Z,5.80
2018-07-06T09:02:47.890Z,4.50
2018-07-06T09:05:16.310Z,5.47
2018-07-06T09:07:44.688Z,5.37
2018-07-06T09:10:13.132Z,4.37
2018-07-06T09:12:41.758Z,4.03
2018-07-06T09:15:10.320Z,4.25
2018-07-06T09:17:38.782Z,3.27
2018-07-06T09:20:07.439Z,3.62
2018-07-06T09:22:35.657Z,4.50
2018-07-06T09:25:05.535Z,3.62
2018-07-06T09:27:34.075Z,3.85
2018-07-06T09:30:02.533Z,3.33
2018-07-06T09:32:30.928Z,4.47
2018-07-06T09:34:59.343Z,4.42
2018-07-06T09:37:27.777Z,9.28
2018-07-06T09:39:56.214Z,5.80
2018-07-06T09:42:24.606Z,4.42
2018-07-06T09:44:52.687Z,3.12
2018-07-06T09:47:21.183Z,3.90
2018-07-06T09:49:49.566Z,3.70
2018-07-06T09:52:18.051Z,2.87
2018-07-06T09:54:46.541Z,4.28
2018-07-06T09:57:15.002Z,2.90
2018-07-06T09:59:43.369Z,3.15
2018-07-06T10:02:11.804Z,5.00
2018-07-06T10:04:40.273Z,3.75
2018-07-06T10:07:08.694Z,4.65
2018-07-06T10:09:37.129Z,2.85
2018-07-06T10:12:05.792Z,3.87
2018-07-06T10:14:34.173Z,3.40
2018-07-06T10:17:02.606Z,2.70
2018-07-06T10:19:31.030Z,2.83
2018-07-06T10:21:59.477Z,3.40
2018-07-06T10:24:27.809Z,3.30
2018-07-06T10:26:56.267Z,3.20
2018-07-06T10:29:39.186Z,4.12
2018-07-06T10:32:14.547Z,2.15
2018-07-06T10:34:42.610Z,2.30
2018-07-06T10:37:11.277Z,1.80
2018-07-06T10:39:39.716Z,1.92
2018-07-06T10:42:08.214Z,1.87
2018-07-06T10:44:36.679Z,2.15
2018-07-06T10:47:05.202Z,2.87
2018-07-06T10:49:33.405Z,1.70
2018-07-06T10:52:01.951Z,1.55
2018-07-06T10:54:30.433Z,1.55
2018-07-06T10:56:58.882Z,2.50
2018-07-06T10:59:27.811Z,2.40
2018-07-06T11:01:56.221Z,1.75
2018-07-06T11:04:24.762Z,1.47
2018-07-06T11:06:53.142Z,1.32
2018-07-06T11:09:21.577Z,1.45
2018-07-06T11:11:50.126Z,1.57
2018-07-06T11:14:18.746Z,1.95
2018-07-06T11:16:47.237Z,1.70
2018-07-06T11:19:15.735Z,1.80
2018-07-06T11:21:44.173Z,2.55
2018-07-06T11:24:12.651Z,1.75
2018-07-06T11:26:41.142Z,1.87
2018-07-06T11:29:09.651Z,4.03
2018-07-06T11:31:38.092Z,5.80
2018-07-06T11:34:07.366Z,2.52
2018-07-06T11:36:35.796Z,1.57
2018-07-06T11:39:05.622Z,1.67
2018-07-06T11:41:34.515Z,1.98
2018-07-06T11:44:02.933Z,2.17
2018-07-06T11:46:31.361Z,1.57
2018-07-06T11:48:59.770Z,1.42
2018-07-06T11:51:28.274Z,1.35
2018-07-06T11:53:56.778Z,1.02
2018-07-06T11:56:25.250Z,1.40
2018-07-06T11:58:53.822Z,1.72
2018-07-06T12:01:22.194Z,1.32
2018-07-06T12:03:50.634Z,1.10
2018-07-06T12:06:18.994Z,1.05
2018-07-06T12:08:47.467Z,1.82
2018-07-06T12:11:15.863Z,1.07
2018-07-06T12:13:44.458Z,1.10
2018-07-06T12:16:12.894Z,1.27
2018-07-06T12:18:41.362Z,1.77
2018-07-06T12:21:09.827Z,1.30
2018-07-06T12:23:38.166Z,1.77
2018-07-06T12:26:06.561Z,3.02
2018-07-06T12:28:35.031Z,1.47
2018-07-06T12:31:03.471Z,3.17
2018-07-06T12:33:31.908Z,1.40
2018-07-06T12:36:00.550Z,2.55
2018-07-06T12:38:29.019Z,1.82
2018-07-06T12:40:57.389Z,2.02
2018-07-06T12:43:25.930Z,1.90
2018-07-06T12:45:54.486Z,3.35
2018-07-06T12:48:22.850Z,2.37
2018-07-06T12:50:51.240Z,1.55
2018-07-06T12:53:19.665Z,2.58
2018-07-06T12:55:48.258Z,2.85
2018-07-06T12:58:16.692Z,2.45
2018-07-06T13:00:45.141Z,2.30
2018-07-06T13:03:13.578Z,3.72
2018-07-06T13:05:42.139Z,2.02
2018-07-06T13:08:10.624Z,4.12
2018-07-06T13:10:39.029Z,1.67
2018-07-06T13:13:07.552Z,2.00
2018-07-06T13:15:36.096Z,3.83
2018-07-06T13:18:04.521Z,1.90
2018-07-06T13:20:32.935Z,3.52
2018-07-06T13:23:01.392Z,2.10
2018-07-06T13:25:30.057Z,2.30
2018-07-06T13:27:58.468Z,2.90
2018-07-06T13:30:26.933Z,3.08
2018-07-06T13:32:55.615Z,2.77
2018-07-06T13:35:24.155Z,2.77
2018-07-06T13:37:52.756Z,2.33
2018-07-06T13:40:21.316Z,2.15
2018-07-06T13:42:49.837Z,1.98
2018-07-06T13:45:18.286Z,2.35
2018-07-06T13:47:46.771Z,1.80
2018-07-06T13:50:15.386Z,3.15
2018-07-06T13:52:43.866Z,2.58
2018-07-06T13:55:12.459Z,2.33
2018-07-06T13:57:41.019Z,2.10
2018-07-06T14:00:09.642Z,2.60
2018-07-06T14:02:38.070Z,3.27
2018-07-06T14:05:06.650Z,2.85
2018-07-06T14:07:35.139Z,2.33
2018-07-06T14:10:03.635Z,2.47
2018-07-06T14:12:32.186Z,2.10
2018-07-06T14:15:00.721Z,2.00
2018-07-06T14:17:29.207Z,4.30
2018-07-06T14:19:57.726Z,8.15
2018-07-06T14:22:25.914Z,2.90
2018-07-06T14:24:54.351Z,2.65
2018-07-06T14:27:23.116Z,3.17
2018-07-06T14:29:51.542Z,2.42
2018-07-06T14:32:20.093Z,3.00
2018-07-06T14:34:48.486Z,3.08
2018-07-06T14:37:16.950Z,3.40
2018-07-06T14:39:45.539Z,3.95
2018-07-06T14:42:14.051Z,3.00
2018-07-06T14:44:42.532Z,4.00
2018-07-06T14:47:11.048Z,3.55
2018-07-06T14:49:39.478Z,4.05
2018-07-06T14:52:08.059Z,3.15
2018-07-06T14:54:36.494Z,3.65
2018-07-06T14:57:05.109Z,3.70
2018-07-06T14:59:33.611Z,3.85
2018-07-06T15:02:02.086Z,3.33
2018-07-06T15:04:30.531Z,3.52
2018-07-06T15:07:02.150Z,6.85
2018-07-06T15:09:30.661Z,5.60
2018-07-06T15:11:59.124Z,4.60
2018-07-06T15:14:27.583Z,4.40
2018-07-06T15:16:56.011Z,5.20
2018-07-06T15:19:24.506Z,5.30
2018-07-06T15:21:52.912Z,4.67
2018-07-06T15:24:21.323Z,4.47
2018-07-06T15:26:49.857Z,4.47
2018-07-06T15:29:25.048Z,4.35
2018-07-06T15:31:53.500Z,4.78
2018-07-06T15:34:21.971Z,5.22
2018-07-06T15:36:50.431Z,5.40
2018-07-06T15:39:19.995Z,5.25
2018-07-06T15:41:48.599Z,5.30
2018-07-06T15:44:17.119Z,5.47
2018-07-06T15:46:45.575Z,5.65
2018-07-06T15:49:14.198Z,5.70
2018-07-06T15:51:42.672Z,5.55
2018-07-06T15:54:11.170Z,6.12
2018-07-06T15:56:39.635Z,5.85
2018-07-06T15:59:08.141Z,7.53
2018-07-06T16:01:36.562Z,7.72
2018-07-06T16:04:05.148Z,5.00
2018-07-06T16:06:33.662Z,7.25
2018-07-06T16:09:02.101Z,5.55
2018-07-06T16:11:30.562Z,4.80
2018-07-06T16:13:58.993Z,5.60
2018-07-06T16:16:27.357Z,6.17
2018-07-06T16:18:55.843Z,5.30
2018-07-06T16:21:24.412Z,6.55
2018-07-06T16:23:52.839Z,7.00
2018-07-06T16:26:21.253Z,6.58
2018-07-06T16:28:49.739Z,5.87
2018-07-06T16:31:18.171Z,6.65
2018-07-06T16:33:47.376Z,7.30
2018-07-06T16:36:15.921Z,7.08
2018-07-06T16:38:44.372Z,6.28
2018-07-06T16:41:12.817Z,6.47
2018-07-06T16:43:41.226Z,6.55
2018-07-06T16:46:09.694Z,6.67
2018-07-06T16:48:38.147Z,5.90
2018-07-06T16:51:06.530Z,5.25
2018-07-06T16:53:35.006Z,6.55
2018-07-06T16:56:03.431Z,4.97
2018-07-06T16:58:31.914Z,5.67
2018-07-06T17:01:00.350Z,4.70
2018-07-06T17:03:29.163Z,4.65
2018-07-06T17:05:57.561Z,4.95
2018-07-06T17:08:26.129Z,4.87
2018-07-06T17:10:54.559Z,4.10
2018-07-06T17:14:26.944Z,4.17
2018-07-06T17:16:55.394Z,5.42
2018-07-06T17:19:24.063Z,6.12
2018-07-06T17:21:52.410Z,5.33
2018-07-06T17:24:20.890Z,6.97
2018-07-06T17:26:49.279Z,6.58
2018-07-06T17:29:17.674Z,4.83
2018-07-06T17:31:46.077Z,6.17
2018-07-06T17:34:14.556Z,4.87
2018-07-06T17:36:42.933Z,5.35
2018-07-06T17:39:11.790Z,6.33
2018-07-06T17:41:40.351Z,5.62
2018-07-06T17:44:08.724Z,5.45
2018-07-06T17:46:37.406Z,6.05
2018-07-06T17:49:06.022Z,7.05
2018-07-06T17:51:34.520Z,6.72
2018-07-06T17:54:02.972Z,6.03
2018-07-06T17:56:31.526Z,6.30
2018-07-06T17:59:00.111Z,6.55
2018-07-06T18:01:28.475Z,6.50
2018-07-06T18:03:56.929Z,6.20
2018-07-06T18:06:25.288Z,6.22
2018-07-06T18:08:53.673Z,7.50
2018-07-06T18:11:22.072Z,7.62
2018-07-06T18:13:50.901Z,7.58
2018-07-06T18:16:19.718Z,6.90
2018-07-06T18:18:48.266Z,6.78
2018-07-06T18:21:17.165Z,6.10
2018-07-06T18:23:45.639Z,7.72
2018-07-06T18:26:14.097Z,7.20
2018-07-06T18:28:42.556Z,6.28
2018-07-06T18:31:11.086Z,6.47
2018-07-06T18:33:39.751Z,6.78
2018-07-06T18:36:08.203Z,6.40
2018-07-06T18:38:36.634Z,6.22
2018-07-06T18:41:05.062Z,6.53
2018-07-06T18:43:33.466Z,6.85
2018-07-06T18:46:02.107Z,6.37
2018-07-06T18:48:30.901Z,6.35
2018-07-06T18:50:59.407Z,6.08
2018-07-06T18:53:27.935Z,6.12
2018-07-06T18:55:56.339Z,7.15
2018-07-06T18:58:24.725Z,5.80
2018-07-06T19:00:53.330Z,6.53
2018-07-06T19:03:21.923Z,6.85
2018-07-06T19:05:50.455Z,7.62
2018-07-06T19:08:18.901Z,6.70
2018-07-06T19:10:47.388Z,6.65
2018-07-06T19:13:15.755Z,7.12
2018-07-06T19:15:44.155Z,7.22
2018-07-06T19:18:12.965Z,6.53
2018-07-06T19:20:41.732Z,6.87
2018-07-06T19:23:10.132Z,9.43
2018-07-06T19:25:38.784Z,7.12
2018-07-06T19:28:07.524Z,7.75
2018-07-06T19:30:36.000Z,7.45
2018-07-06T19:33:04.361Z,7.92
2018-07-06T19:35:32.740Z,6.97
2018-07-06T19:38:01.307Z,7.30
2018-07-06T19:40:29.860Z,7.40
2018-07-06T19:42:58.574Z,7.67
2018-07-06T19:45:27.128Z,6.92
2018-07-06T19:47:55.517Z,7.40
2018-07-06T19:50:23.948Z,8.75
2018-07-06T19:52:52.005Z,8.05
2018-07-06T19:55:20.554Z,8.95
2018-07-06T19:57:49.244Z,10.85
2018-07-06T20:00:17.805Z,11.08
2018-07-06T20:02:46.227Z,8.38
2018-07-06T20:05:14.645Z,7.37
2018-07-06T20:07:43.008Z,8.78
2018-07-06T20:10:11.421Z,10.50
2018-07-06T20:12:39.793Z,11.35
2018-07-06T20:15:08.259Z,12.15
2018-07-06T20:17:36.696Z,8.38
2018-07-06T20:20:06.428Z,8.43
2018-07-06T20:22:34.775Z,9.55
2018-07-06T20:25:03.178Z,11.65
2018-07-06T20:27:31.560Z,14.25
2018-07-06T20:29:59.616Z,10.75
2018-07-06T20:32:28.025Z,11.55
2018-07-06T20:34:56.585Z,11.10
2018-07-06T20:37:24.985Z,8.23
2018-07-06T20:39:53.371Z,7.65
2018-07-06T20:42:21.895Z,8.83
2018-07-06T20:44:50.569Z,7.50
2018-07-06T20:47:19.200Z,10.93
2018-07-06T20:49:47.550Z,7.30
2018-07-06T20:52:15.926Z,8.03
2018-07-06T20:54:44.433Z,7.05
2018-07-06T20:57:12.821Z,6.95
2018-07-06T20:59:41.308Z,6.90
2018-07-06T21:02:09.713Z,7.90
2018-07-06T21:04:38.110Z,7.60
2018-07-06T21:07:06.470Z,8.13
2018-07-06T21:09:35.741Z,6.47
2018-07-06T21:12:04.324Z,7.35
2018-07-06T21:14:32.686Z,7.97
2018-07-06T21:17:01.042Z,7.25
2018-07-06T21:19:29.426Z,8.13
2018-07-06T21:21:57.846Z,9.10
2018-07-06T21:24:26.203Z,8.10
2018-07-06T21:26:54.300Z,8.53
2018-07-06T21:29:22.634Z,8.50
2018-07-06T21:31:51.005Z,9.03
2018-07-06T21:34:19.352Z,10.98
2018-07-06T21:36:47.731Z,8.65
2018-07-06T21:39:16.081Z,9.00
2018-07-06T21:41:44.456Z,9.88
2018-07-06T21:44:12.807Z,8.53
2018-07-06T21:46:41.205Z,9.25
2018-07-06T21:49:09.765Z,8.60
2018-07-06T21:51:38.142Z,8.83
2018-07-06T21:54:06.524Z,9.20
2018-07-06T21:56:34.974Z,9.03
2018-07-06T21:59:03.354Z,9.85
2018-07-06T22:01:31.775Z,9.45
2018-07-06T22:04:00.167Z,10.03
2018-07-06T22:06:28.280Z,10.28
2018-07-06T22:08:56.661Z,9.90
2018-07-06T22:11:25.066Z,9.20
2018-07-06T22:13:53.451Z,10.85
2018-07-06T22:16:21.813Z,9.25
2018-07-06T22:18:50.181Z,8.85
2018-07-06T22:21:18.528Z,9.15
2018-07-06T22:23:46.958Z,8.80
2018-07-06T22:26:15.329Z,8.88
2018-07-06T22:28:43.751Z,8.95
2018-07-06T22:31:12.501Z,9.78
2018-07-06T22:33:40.852Z,9.38
2018-07-06T22:36:09.194Z,8.90
2018-07-06T22:38:37.577Z,9.38
2018-07-06T22:41:05.964Z,11.08
2018-07-06T22:43:34.506Z,9.88
2018-07-06T22:46:02.897Z,10.40
2018-07-06T22:48:31.343Z,10.65
2018-07-06T22:50:59.708Z,10.23
2018-07-06T22:53:28.078Z,11.45
2018-07-06T22:55:56.703Z,10.63
2018-07-06T22:58:25.148Z,11.18
2018-07-06T23:00:53.498Z,9.45
2018-07-06T23:03:21.871Z,9.40
2018-07-06T23:05:50.243Z,9.45
2018-07-06T23:08:18.683Z,10.05
2018-07-06T23:10:47.062Z,9.65
2018-07-06T23:13:15.444Z,9.40
2018-07-06T23:15:43.833Z,9.58
2018-07-06T23:18:12.291Z,10.65
2018-07-06T23:20:40.627Z,9.55
2018-07-06T23:23:10.930Z,9.25
2018-07-06T23:25:41.455Z,9.55
2018-07-06T23:28:09.850Z,10.00
2018-07-06T23:30:39.163Z,19.32
2018-07-06T23:33:08.318Z,17.17
2018-07-06T23:35:36.825Z,16.70
2018-07-06T23:38:05.326Z,13.03
2018-07-06T23:40:33.702Z,13.25
2018-07-06T23:43:02.088Z,13.35
2018-07-06T23:45:30.188Z,11.88
2018-07-06T23:47:58.585Z,10.15
2018-07-06T23:50:26.948Z,9.93
2018-07-06T23:52:55.304Z,9.60
2018-07-06T23:55:23.686Z,12.05
2018-07-06T23:57:52.059Z,9.83
